Time;durP1;ratioP1;P1;durP2;ratioP2;P2;SDS_P1;SDS_P2;PMS_P1;PMS_P2;Temp;Humidity;BMP_temperature;BMP_pressure;BME280_temperature;BME280_humidity;BME280_pressure;Samples;Min_cycle;Max_cycle;Signal;HPM_P1;HPM_P2
2022/01/21 00:02:24;;;;;;;25.45;8.35;;;-1.20;99.90;;;;;;4924870;29;20363;-85
2022/01/21 00:04:50;;;;;;;37.40;8.68;;;-1.20;99.90;;;;;;4924618;29;20509;-85
2022/01/21 00:07:16;;;;;;;31.02;8.70;;;-1.10;99.90;;;;;;4924461;29;20035;-84
2022/01/21 00:10:07;;;;;;;27.42;8.77;;;-1.10;99.90;;;;;;4957482;29;20082;-84
2022/01/21 00:12:34;;;;;;;25.48;8.15;;;-1.10;99.90;;;;;;4956474;29;20090;-85
2022/01/21 00:15:00;;;;;;;33.17;10.73;;;-1.10;99.90;;;;;;4957375;29;20042;-85
2022/01/21 00:17:25;;;;;;;39.45;8.93;;;-1.10;99.90;;;;;;4957370;29;20474;-85
2022/01/21 00:30:03;;;;;;;36.67;9.77;;;-1.10;99.90;;;;;;4924045;29;20042;-85
2022/01/21 00:30:49;;;;;;;27.13;9.90;;;-1.20;99.90;;;;;;4939814;29;20035;-85
2022/01/21 00:33:15;;;;;;;32.55;10.18;;;-1.30;99.90;;;;;;4955430;29;20031;-85
2022/01/21 00:35:40;;;;;;;36.85;9.70;;;-1.30;99.90;;;;;;4955584;29;20490;-85
2022/01/21 00:38:06;;;;;;;32.83;10.82;;;-1.30;99.90;;;;;;4923805;29;20043;-85
2022/01/21 00:40:33;;;;;;;28.48;10.70;;;-1.30;99.90;;;;;;4924153;29;20038;-84
2022/01/21 00:45:42;;;;;;;38.80;11.55;;;-1.40;99.90;;;;;;4955419;29;20031;-84
2022/01/21 00:48:08;;;;;;;45.17;12.40;;;-1.40;99.90;;;;;;4924357;29;20042;-85
2022/01/21 00:50:34;;;;;;;31.85;11.85;;;-1.30;99.90;;;;;;4924036;29;20035;-85
2022/01/21 00:53:00;;;;;;;53.63;13.38;;;-1.30;99.90;;;;;;4923820;29;20034;-84
2022/01/21 00:55:26;;;;;;;46.42;13.30;;;-1.30;99.90;;;;;;4939470;29;20040;-85
2022/01/21 00:57:52;;;;;;;35.20;12.63;;;-1.40;99.90;;;;;;4923777;29;20031;-84
2022/01/21 01:00:18;;;;;;;51.03;14.38;;;-1.40;99.90;;;;;;4923417;29;20035;-84
2022/01/21 01:02:44;;;;;;;50.05;15.55;;;-1.50;99.90;;;;;;4939654;29;20394;-84
2022/01/21 01:05:16;;;;;;;43.08;14.43;;;-1.60;99.90;;;;;;4923666;29;20486;-85
2022/01/21 01:07:42;;;;;;;44.30;15.15;;;-1.60;99.90;;;;;;4923651;28;20438;-85
2022/01/21 01:10:21;;;;;;;58.80;15.77;;;-1.70;99.90;;;;;;4939608;29;20028;-85
2022/01/21 01:20:49;;;;;;;36.55;14.27;;;-1.60;99.90;;;;;;4939206;29;20039;-84
2022/01/21 01:28:53;;;;;;;35.13;14.60;;;-1.50;99.90;;;;;;4956471;29;20035;-85
2022/01/21 01:31:19;;;;;;;56.20;14.95;;;-1.50;99.90;;;;;;4923599;29;20062;-85
2022/01/21 01:33:45;;;;;;;51.30;15.48;;;-1.50;99.90;;;;;;4923534;29;20082;-85
2022/01/21 01:36:10;;;;;;;42.15;14.05;;;-1.60;99.90;;;;;;4923652;29;20031;-85
2022/01/21 01:38:59;;;;;;;53.40;14.82;;;-1.60;99.90;;;;;;4923452;29;20073;-84
2022/01/21 01:41:25;;;;;;;44.65;14.60;;;-1.60;99.90;;;;;;4938340;29;20035;-85
2022/01/21 01:49:36;;;;;;;52.72;13.23;;;-1.90;99.90;;;;;;4939319;29;20090;-85
2022/01/21 01:52:06;;;;;;;60.55;16.80;;;-2.00;99.90;;;;;;4939279;29;20038;-84
2022/01/21 01:54:34;;;;;;;46.72;14.35;;;-2.00;99.90;;;;;;4923592;29;20023;-85
2022/01/21 01:57:00;;;;;;;52.60;15.60;;;-2.00;99.90;;;;;;4923362;29;20028;-85
2022/01/21 01:59:26;;;;;;;50.10;16.15;;;-2.10;99.90;;;;;;4923472;29;20438;-84
2022/01/21 02:01:58;;;;;;;54.67;15.75;;;-2.10;99.90;;;;;;4955315;29;20481;-84
2022/01/21 02:04:24;;;;;;;;;;;-2.20;99.90;;;;;;4923479;29;20394;-85
2022/01/21 02:06:50;;;;;;;55.63;14.48;;;-2.20;99.90;;;;;;4955072;29;19911;-85
2022/01/21 02:09:16;;;;;;;55.92;17.10;;;-2.20;99.90;;;;;;4956477;29;20509;-85
2022/01/21 02:11:42;;;;;;;46.15;13.93;;;-2.30;99.90;;;;;;4954800;29;20027;-84
2022/01/21 02:14:11;;;;;;;52.10;15.18;;;-2.30;99.90;;;;;;4923137;29;20027;-84
2022/01/21 02:17:11;;;;;;;52.58;15.30;;;-2.30;99.90;;;;;;4923295;29;20035;-84
2022/01/21 02:22:37;;;;;;;46.97;13.65;;;-2.30;99.90;;;;;;4959548;29;20753;-84
2022/01/21 02:25:19;;;;;;;46.60;14.40;;;-2.20;99.90;;;;;;4942262;29;20375;-85
2022/01/21 02:27:52;;;;;;;45.03;14.13;;;-2.30;99.90;;;;;;4926572;29;20110;-85
2022/01/21 02:30:20;;;;;;;51.35;14.48;;;-2.30;99.90;;;;;;4926426;29;20062;-84
2022/01/21 02:32:52;;;;;;;41.20;14.55;;;-2.30;99.90;;;;;;4942257;29;20114;-84
2022/01/21 02:35:19;;;;;;;45.00;13.75;;;-2.30;99.90;;;;;;4925936;29;20524;-84
2022/01/21 02:37:45;;;;;;;39.17;14.77;;;-2.40;99.90;;;;;;4941780;29;20114;-84
2022/01/21 02:40:12;;;;;;;52.10;17.70;;;-2.30;99.90;;;;;;4926147;29;20390;-84
2022/01/21 02:42:38;;;;;;;47.63;14.77;;;-2.40;99.90;;;;;;4958108;29;20027;-84
2022/01/21 02:45:07;;;;;;;48.25;12.50;;;-2.40;99.90;;;;;;4926016;29;20090;-84
2022/01/21 02:47:33;;;;;;;50.60;15.07;;;-2.40;99.90;;;;;;4926355;29;20086;-85
2022/01/21 02:49:59;;;;;;;57.47;13.25;;;-2.50;99.90;;;;;;4925568;29;20023;-84
2022/01/21 02:52:29;;;;;;;49.78;14.48;;;-2.50;99.90;;;;;;4925855;29;20452;-84
2022/01/21 02:54:55;;;;;;;43.33;12.88;;;-2.50;99.90;;;;;;4925855;29;20485;-85
2022/01/21 02:57:21;;;;;;;46.95;14.88;;;-2.50;99.90;;;;;;4926116;29;20039;-84
2022/01/21 02:59:49;;;;;;;55.88;14.32;;;-2.40;99.90;;;;;;4925841;29;20042;-84
2022/01/21 03:02:15;;;;;;;43.47;13.95;;;-2.30;99.90;;;;;;4926027;29;20042;-85
2022/01/21 03:07:10;;;;;;;44.78;13.68;;;-2.10;99.90;;;;;;4941714;29;20032;-85
2022/01/21 03:09:36;;;;;;;54.60;14.70;;;-2.00;99.90;;;;;;4925559;29;20503;-85
2022/01/21 03:12:02;;;;;;;48.08;13.80;;;-1.90;99.90;;;;;;4957653;29;20027;-85
2022/01/21 03:14:27;;;;;;;44.95;14.00;;;-1.80;99.90;;;;;;4941424;29;20035;-85
2022/01/21 03:16:53;;;;;;;35.25;13.27;;;-1.80;99.90;;;;;;4957306;29;20439;-84
2022/01/21 03:19:19;;;;;;;38.92;13.45;;;-1.80;99.90;;;;;;4925529;29;20102;-85
2022/01/21 03:21:45;;;;;;;36.08;11.55;;;-1.70;99.90;;;;;;4925724;29;20398;-84
2022/01/21 03:24:11;;;;;;;49.35;12.70;;;-1.70;99.90;;;;;;4924934;29;20129;-84
2022/01/21 03:26:37;;;;;;;27.77;10.68;;;-1.70;99.90;;;;;;4925441;29;20031;-85
2022/01/21 03:29:04;;;;;;;32.92;11.23;;;-1.70;99.90;;;;;;4956918;29;20118;-84
2022/01/21 03:31:34;;;;;;;40.30;11.85;;;-1.70;99.90;;;;;;4925737;29;20031;-84
2022/01/21 03:34:02;;;;;;;36.88;13.13;;;-1.70;99.90;;;;;;4925446;29;20418;-84
2022/01/21 03:36:31;;;;;;;45.75;13.00;;;-1.70;99.90;;;;;;4925966;29;20023;-84
2022/01/21 03:38:57;;;;;;;38.63;12.32;;;-1.80;99.90;;;;;;4924855;29;20037;-84
2022/01/21 03:41:24;;;;;;;34.47;12.05;;;-1.80;99.90;;;;;;4925090;29;20031;-84
2022/01/21 03:43:51;;;;;;;38.80;12.10;;;-1.90;99.90;;;;;;4940651;29;20030;-85
2022/01/21 03:46:18;;;;;;;42.80;12.88;;;-2.00;99.90;;;;;;4924708;29;20031;-85
2022/01/21 03:48:48;;;;;;;34.25;12.98;;;-2.00;99.90;;;;;;4940945;29;20093;-85
2022/01/21 03:51:16;;;;;;;35.23;13.40;;;-2.10;99.90;;;;;;4925307;29;20035;-84
2022/01/21 03:53:43;;;;;;;38.65;13.50;;;-2.20;99.90;;;;;;4940841;29;20026;-84
2022/01/21 03:56:09;;;;;;;30.17;12.32;;;-2.20;99.90;;;;;;4925138;29;20027;-84
2022/01/21 03:58:34;;;;;;;36.35;13.40;;;-2.20;99.90;;;;;;4925140;29;20390;-84
2022/01/21 04:01:04;;;;;;;49.85;12.93;;;-2.10;99.90;;;;;;4925454;29;20039;-84
2022/01/21 04:03:30;;;;;;;52.00;15.25;;;-2.00;99.90;;;;;;4924783;29;20035;-84
2022/01/21 04:05:56;;;;;;;40.67;14.25;;;-1.90;99.90;;;;;;4924765;29;20505;-84
2022/01/21 04:08:23;;;;;;;42.05;13.02;;;-1.80;99.90;;;;;;4956785;29;20035;-84
2022/01/21 04:10:54;;;;;;;;;;;-1.80;99.90;;;;;;4925768;29;20419;-85
2022/01/21 04:13:22;;;;;;;46.03;12.95;;;-1.70;99.90;;;;;;4940581;29;19916;-84
2022/01/21 04:15:54;;;;;;;30.52;12.20;;;-1.70;99.90;;;;;;4925053;29;20055;-85
2022/01/21 04:18:22;;;;;;;43.80;13.70;;;-1.70;99.90;;;;;;4924341;29;20082;-84
2022/01/21 04:20:53;;;;;;;31.60;12.95;;;-1.70;99.90;;;;;;4940330;29;20027;-84
2022/01/21 04:23:21;;;;;;;34.33;13.35;;;-1.70;99.90;;;;;;4924304;29;20032;-84
2022/01/21 04:25:48;;;;;;;38.03;12.90;;;-1.70;99.90;;;;;;4924437;29;20397;-84
2022/01/21 04:28:14;;;;;;;34.40;11.82;;;-1.60;99.90;;;;;;4940028;29;20027;-84
2022/01/21 04:30:41;;;;;;;44.42;11.98;;;-1.70;99.90;;;;;;4924418;29;20027;-84
2022/01/21 04:33:11;;;;;;;42.38;11.50;;;-1.70;99.90;;;;;;4923989;29;20121;-84
2022/01/21 04:35:37;;;;;;;30.25;12.38;;;-1.70;99.90;;;;;;4924124;29;20383;-83
2022/01/21 04:38:07;;;;;;;39.50;12.23;;;-1.70;99.90;;;;;;4955140;29;20533;-83
2022/01/21 04:40:39;;;;;;;34.38;10.82;;;-1.70;99.90;;;;;;4923473;29;20034;-84
2022/01/21 04:48:37;;;;;;;38.47;12.75;;;-1.90;99.90;;;;;;4939682;29;20260;-84
2022/01/21 04:51:19;;;;;;;43.53;12.73;;;-1.90;99.90;;;;;;4923768;29;20034;-84
2022/01/21 04:53:48;;;;;;;37.92;13.45;;;-2.00;99.90;;;;;;4939575;29;20031;-84
2022/01/21 04:56:22;;;;;;;38.70;12.40;;;-2.00;99.90;;;;;;4924920;29;20039;-84
2022/01/21 04:58:48;;;;;;;35.28;13.23;;;-2.00;99.90;;;;;;4923598;29;20063;-83
2022/01/21 05:01:14;;;;;;;31.02;12.85;;;-2.00;99.90;;;;;;4939039;29;20418;-84
2022/01/21 05:03:41;;;;;;;36.10;13.02;;;-2.00;99.90;;;;;;4923060;29;20390;-84
2022/01/21 05:06:08;;;;;;;36.80;12.23;;;-2.00;99.90;;;;;;4955227;29;20032;-84
2022/01/21 05:08:55;;;;;;;50.83;13.80;;;-2.00;99.90;;;;;;4924265;29;20029;-84
2022/01/21 05:11:22;;;;;;;35.92;12.90;;;-2.00;99.90;;;;;;4923623;29;20482;-84
2022/01/21 05:13:58;;;;;;;27.05;12.55;;;-2.00;99.90;;;;;;4923729;29;20031;-84
2022/01/21 05:18:58;;;;;;;38.63;13.55;;;-2.00;99.90;;;;;;4954835;29;20078;-84
2022/01/21 05:21:45;;;;;;;37.10;12.45;;;-2.00;99.90;;;;;;4938987;29;20031;-84
2022/01/21 05:24:17;;;;;;;32.38;12.07;;;-2.00;99.90;;;;;;4923761;29;20490;-83
2022/01/21 05:26:52;;;;;;;43.55;13.10;;;-1.90;99.90;;;;;;4923809;29;20042;-84
2022/01/21 05:29:23;;;;;;;47.08;10.82;;;-1.90;99.90;;;;;;4923597;29;20062;-84
2022/01/21 05:32:15;;;;;;;34.92;11.80;;;-1.90;99.90;;;;;;4935938;29;20031;-84
2022/01/21 05:34:59;;;;;;;36.40;13.00;;;-1.90;99.90;;;;;;4942712;29;20042;-84
2022/01/21 05:37:43;;;;;;;37.13;11.70;;;-2.00;99.90;;;;;;4942633;29;20048;-84
2022/01/21 05:40:27;;;;;;;32.50;11.27;;;-2.00;99.90;;;;;;4942046;29;20050;-84
2022/01/21 05:43:08;;;;;;;36.50;12.60;;;-2.00;99.90;;;;;;4925583;29;20034;-84
2022/01/21 05:48:55;;;;;;;37.00;12.90;;;-2.00;99.90;;;;;;4957084;29;20450;-84
2022/01/21 05:51:39;;;;;;;32.33;12.45;;;-2.00;99.90;;;;;;4942247;29;20151;-84
2022/01/21 05:54:13;;;;;;;37.50;14.27;;;-1.90;99.90;;;;;;4941557;29;20035;-84
2022/01/21 05:56:51;;;;;;;51.17;14.65;;;-1.80;99.90;;;;;;4943673;29;20024;-84
2022/01/21 05:59:37;;;;;;;46.80;12.45;;;-1.80;99.90;;;;;;4945755;29;20833;-83
2022/01/21 06:02:05;;;;;;;42.25;13.85;;;-1.80;99.90;;;;;;4959025;29;20031;-84
2022/01/21 06:04:32;;;;;;;28.90;12.57;;;-1.80;99.90;;;;;;4942997;29;20031;-84
2022/01/21 06:07:00;;;;;;;45.03;13.85;;;-1.70;99.90;;;;;;4927495;29;20474;-84
2022/01/21 06:09:27;;;;;;;33.83;12.27;;;-1.70;99.90;;;;;;4927156;29;20027;-84
2022/01/21 06:11:53;;;;;;;40.67;13.82;;;-1.70;99.90;;;;;;4943185;29;20027;-84
2022/01/21 06:14:40;;;;;;;41.83;13.52;;;-1.70;99.90;;;;;;4926746;29;20024;-84
2022/01/21 06:17:10;;;;;;;47.63;13.43;;;-1.70;99.90;;;;;;4927154;29;20126;-84
2022/01/21 06:19:35;;;;;;;49.30;12.98;;;-1.70;99.90;;;;;;4926601;29;20038;-84
2022/01/21 06:22:01;;;;;;;38.15;12.60;;;-1.70;99.90;;;;;;4958697;29;20028;-84
2022/01/21 06:24:27;;;;;;;40.38;12.93;;;-1.60;99.90;;;;;;4942166;29;20039;-84
2022/01/21 06:26:58;;;;;;;46.13;14.15;;;-1.60;99.90;;;;;;4942623;29;20038;-84
2022/01/21 06:29:27;;;;;;;37.95;12.98;;;-1.70;99.90;;;;;;4943017;29;20055;-84
2022/01/21 06:31:53;;;;;;;42.17;16.52;;;-1.70;99.90;;;;;;4927005;29;20038;-84
2022/01/21 06:34:19;;;;;;;46.90;14.45;;;-1.70;99.90;;;;;;4926253;29;20122;-84
2022/01/21 06:36:45;;;;;;;39.85;14.50;;;-1.70;99.90;;;;;;4926238;29;20355;-84
2022/01/21 06:39:10;;;;;;;40.38;15.80;;;-1.70;99.90;;;;;;4958030;29;20037;-84
2022/01/21 06:41:36;;;;;;;35.80;13.98;;;-1.70;99.90;;;;;;4925948;29;20031;-83
2022/01/21 06:44:03;;;;;;;43.75;13.00;;;-1.70;99.90;;;;;;4926370;29;20070;-84
2022/01/21 06:46:29;;;;;;;48.10;16.13;;;-1.70;99.90;;;;;;4957864;29;20066;-84
2022/01/21 06:48:55;;;;;;;37.50;13.20;;;-1.70;99.90;;;;;;4926041;29;20062;-83
2022/01/21 06:51:56;;;;;;;41.80;14.45;;;-1.70;99.90;;;;;;4942089;29;20370;-83
2022/01/21 06:54:21;;;;;;;73.40;25.45;;;-1.70;99.90;;;;;;4941763;29;20143;-84
2022/01/21 06:56:47;;;;;;;50.13;17.42;;;-1.80;99.90;;;;;;4957633;29;20066;-84
2022/01/21 06:59:13;;;;;;;47.75;15.18;;;-1.80;99.90;;;;;;4926127;29;20533;-83
2022/01/21 07:01:38;;;;;;;42.95;16.70;;;-1.80;99.90;;;;;;4941565;29;20043;-83
2022/01/21 07:04:04;;;;;;;42.00;14.68;;;-1.80;99.90;;;;;;4959046;29;20482;-84
2022/01/21 07:06:30;;;;;;;47.63;14.80;;;-1.80;99.90;;;;;;4925041;29;20038;-84
2022/01/21 07:08:56;;;;;;;50.67;15.57;;;-1.80;99.90;;;;;;4925432;29;20098;-84
2022/01/21 07:11:22;;;;;;;43.47;16.42;;;-1.80;99.90;;;;;;4957469;29;20030;-84
2022/01/21 07:13:47;;;;;;;42.67;15.18;;;-1.80;99.90;;;;;;4942377;29;20106;-85
2022/01/21 07:16:13;;;;;;;37.20;14.77;;;-1.80;99.90;;;;;;4926259;29;20035;-84
2022/01/21 07:18:39;;;;;;;40.78;15.75;;;-1.80;99.90;;;;;;4925738;29;20099;-85
2022/01/21 07:21:04;;;;;;;44.70;16.00;;;-1.70;99.90;;;;;;4957836;29;20138;-85
2022/01/21 07:23:30;;;;;;;53.58;19.27;;;-1.70;99.90;;;;;;4957433;29;20406;-85
2022/01/21 07:25:57;;;;;;;46.28;16.50;;;-1.70;99.90;;;;;;4958864;29;20478;-85
2022/01/21 07:28:23;;;;;;;38.10;14.48;;;-1.70;99.90;;;;;;4942263;29;20070;-85
2022/01/21 07:30:48;;;;;;;50.05;16.25;;;-1.70;99.90;;;;;;4925851;29;20027;-86
2022/01/21 07:33:14;;;;;;;30.98;15.02;;;-1.70;99.90;;;;;;4925466;29;20082;-84
2022/01/21 07:35:40;;;;;;;55.55;14.82;;;-1.80;99.90;;;;;;4940688;29;20070;-85
2022/01/21 07:38:06;;;;;;;57.55;18.15;;;-1.80;99.90;;;;;;4925299;29;20039;-84
2022/01/21 07:40:32;;;;;;;62.30;23.70;;;-1.80;99.90;;;;;;4925840;29;20038;-84
2022/01/21 07:42:58;;;;;;;66.57;23.27;;;-1.70;99.90;;;;;;4941293;29;20031;-84
2022/01/21 07:45:24;;;;;;;44.05;17.67;;;-1.70;99.90;;;;;;4944052;29;20026;-84
2022/01/21 07:47:50;;;;;;;65.50;22.88;;;-1.70;99.90;;;;;;4941225;29;20031;-84
2022/01/21 07:50:16;;;;;;;44.28;15.65;;;-1.70;99.90;;;;;;4925635;29;20027;-84
2022/01/21 07:52:42;;;;;;;45.33;16.10;;;-1.70;99.90;;;;;;4941351;29;20497;-84
2022/01/21 07:55:08;;;;;;;56.85;19.42;;;-1.60;99.90;;;;;;4941153;29;20035;-84
2022/01/21 07:57:34;;;;;;;54.30;22.02;;;-1.50;99.90;;;;;;4925146;29;20042;-84
2022/01/21 07:59:59;;;;;;;42.17;16.83;;;-1.50;99.90;;;;;;4925794;29;20035;-84
2022/01/21 08:02:27;;;;;;;56.25;17.10;;;-1.40;99.90;;;;;;4940686;29;20032;-84
2022/01/21 08:04:55;;;;;;;56.20;21.23;;;-1.40;99.90;;;;;;4940505;29;20031;-84
2022/01/21 08:07:21;;;;;;;71.50;23.77;;;-1.20;99.90;;;;;;4926472;29;20073;-84
2022/01/21 08:09:49;;;;;;;60.88;20.67;;;-1.20;99.90;;;;;;4940619;29;20039;-84
2022/01/21 08:12:16;;;;;;;50.45;18.52;;;-1.20;99.90;;;;;;4940738;29;20028;-84
2022/01/21 08:14:43;;;;;;;53.00;18.15;;;-1.20;99.90;;;;;;4924764;29;20038;-85
2022/01/21 08:17:09;;;;;;;46.47;17.33;;;-1.10;99.90;;;;;;4941093;28;20393;-84
2022/01/21 08:19:35;;;;;;;47.60;17.30;;;-1.10;99.90;;;;;;4924031;29;20027;-84
2022/01/21 08:22:01;;;;;;;57.90;19.17;;;-1.00;99.90;;;;;;4923949;29;20204;-84
2022/01/21 08:24:27;;;;;;;46.28;16.27;;;-1.00;99.90;;;;;;4924498;29;20093;-84
2022/01/21 08:26:53;;;;;;;46.95;14.07;;;-0.90;99.90;;;;;;4940356;29;20023;-84
2022/01/21 08:29:18;;;;;;;35.22;13.70;;;-0.90;99.90;;;;;;4924800;29;20433;-85
2022/01/21 08:32:12;;;;;;;61.13;20.17;;;-0.90;99.90;;;;;;4940598;29;20038;-84
2022/01/21 08:34:38;;;;;;;43.53;17.85;;;-0.90;99.90;;;;;;4939876;29;20106;-85
2022/01/21 08:37:05;;;;;;;40.38;19.13;;;-0.90;99.90;;;;;;4940342;29;20039;-85
2022/01/21 08:39:30;;;;;;;57.38;19.50;;;-0.90;99.90;;;;;;4924572;29;20482;-84
2022/01/21 08:41:57;;;;;;;43.58;15.48;;;-0.90;99.90;;;;;;4924367;29;20031;-84
2022/01/21 08:44:22;;;;;;;61.88;18.27;;;-0.90;99.90;;;;;;4939953;29;20031;-85
2022/01/21 08:46:49;;;;;;;76.35;25.02;;;-0.80;99.90;;;;;;4939988;29;20038;-85
2022/01/21 08:49:18;;;;;;;48.75;16.58;;;-0.80;99.90;;;;;;4957109;29;20038;-84
2022/01/21 08:51:53;;;;;;;58.42;22.00;;;-0.80;99.90;;;;;;4924187;29;20042;-85
2022/01/21 08:54:19;;;;;;;43.58;16.98;;;-0.70;99.90;;;;;;4924482;29;20031;-85
2022/01/21 08:56:46;;;;;;;41.65;15.20;;;-0.70;99.90;;;;;;4940162;29;20031;-85
2022/01/21 08:59:13;;;;;;;64.18;20.92;;;-0.60;99.90;;;;;;4940685;29;20130;-84
2022/01/21 09:01:39;;;;;;;52.15;18.60;;;-0.60;99.90;;;;;;4940051;29;20501;-84
2022/01/21 09:04:27;;;;;;;51.58;19.50;;;-0.50;99.90;;;;;;4939902;29;20031;-85
2022/01/21 09:06:53;;;;;;;60.90;25.67;;;-0.40;99.90;;;;;;4940975;29;20098;-84
2022/01/21 09:09:19;;;;;;;50.17;21.50;;;-0.30;99.90;;;;;;4924689;29;20038;-84
2022/01/21 09:11:45;;;;;;;50.88;17.42;;;-0.10;99.90;;;;;;4940607;29;20031;-84
2022/01/21 09:14:11;;;;;;;51.30;19.30;;;0.00;99.90;;;;;;4938864;29;20066;-85
2022/01/21 09:16:38;;;;;;;133.02;41.53;;;0.00;99.90;;;;;;4957594;28;20031;-85
2022/01/21 09:19:05;;;;;;;143.30;48.60;;;-0.10;99.90;;;;;;4923842;29;20039;-85
2022/01/21 09:21:36;;;;;;;122.53;41.35;;;0.00;99.90;;;;;;4923774;29;20031;-85
2022/01/21 09:24:04;;;;;;;82.68;31.25;;;0.10;99.90;;;;;;4939779;29;20506;-85
2022/01/21 09:26:30;;;;;;;58.63;23.60;;;0.20;99.90;;;;;;4923345;29;20032;-85
2022/01/21 09:28:57;;;;;;;53.15;19.40;;;0.20;99.90;;;;;;4924252;29;20437;-85
2022/01/21 09:31:23;;;;;;;68.53;25.95;;;0.30;99.90;;;;;;4930040;29;20038;-85
2022/01/21 09:33:49;;;;;;;51.28;17.80;;;0.50;99.90;;;;;;4946347;29;20038;-84
2022/01/21 09:36:17;;;;;;;43.38;17.15;;;0.50;99.90;;;;;;4930476;29;20023;-86
2022/01/21 09:38:43;;;;;;;71.03;26.00;;;0.50;99.90;;;;;;4947159;29;20035;-83
2022/01/21 09:41:10;;;;;;;44.55;18.02;;;0.80;99.90;;;;;;4945418;29;20122;-83
2022/01/21 09:43:38;;;;;;;50.25;20.83;;;1.00;99.90;;;;;;4929443;28;20039;-84
2022/01/21 09:46:07;;;;;;;46.60;21.38;;;1.20;99.90;;;;;;4945054;29;20038;-84
2022/01/21 09:48:47;;;;;;;50.70;21.65;;;1.40;99.90;;;;;;4945291;28;20035;-84
2022/01/21 09:51:14;;;;;;;35.07;15.53;;;1.30;99.90;;;;;;4929226;29;20056;-83
2022/01/21 09:53:41;;;;;;;46.22;17.02;;;0.80;99.90;;;;;;4945214;29;20031;-84
2022/01/21 09:56:07;;;;;;;36.40;13.75;;;0.90;99.90;;;;;;4929339;29;20449;-84
2022/01/21 09:58:33;;;;;;;32.28;14.25;;;1.10;99.90;;;;;;4929370;29;20131;-84
2022/01/21 10:01:05;;;;;;;41.47;15.15;;;1.00;99.90;;;;;;4929565;29;20385;-83
2022/01/21 10:03:33;;;;;;;34.97;12.15;;;0.80;99.90;;;;;;4929698;29;20039;-84
2022/01/21 10:06:01;;;;;;;39.92;13.95;;;0.60;99.90;;;;;;4945354;29;20027;-83
2022/01/21 10:08:28;;;;;;;44.40;14.70;;;0.40;99.90;;;;;;4945090;29;20038;-84
2022/01/21 10:10:54;;;;;;;35.38;15.05;;;0.20;99.90;;;;;;4945395;29;20390;-83
2022/01/21 10:13:20;;;;;;;34.30;13.70;;;0.10;99.90;;;;;;4929256;29;20027;-83
2022/01/21 10:16:06;;;;;;;35.63;13.50;;;0.10;99.90;;;;;;4945243;29;20035;-83
2022/01/21 10:18:32;;;;;;;36.65;13.85;;;0.10;99.90;;;;;;4961354;29;20039;-84
2022/01/21 10:21:04;;;;;;;41.20;14.73;;;0.20;99.90;;;;;;4960685;29;20035;-84
2022/01/21 10:23:33;;;;;;;46.65;14.55;;;0.20;99.90;;;;;;4961949;29;20050;-84
2022/01/21 10:26:10;;;;;;;42.83;13.43;;;0.20;99.90;;;;;;4944640;28;20031;-84
2022/01/21 10:28:38;;;;;;;37.42;15.00;;;0.30;99.90;;;;;;4928704;29;20042;-84
2022/01/21 10:31:24;;;;;;;32.08;12.70;;;0.30;99.90;;;;;;4961328;28;20031;-85
2022/01/21 10:34:02;;;;;;;42.50;13.27;;;0.50;99.90;;;;;;4928614;29;20142;-84
2022/01/21 10:36:33;;;;;;;35.67;13.73;;;0.50;99.90;;;;;;4931073;29;20103;-85
2022/01/21 10:39:11;;;;;;;35.33;11.18;;;0.60;99.90;;;;;;4928417;29;20035;-85
2022/01/21 10:41:43;;;;;;;32.03;13.18;;;0.70;99.90;;;;;;4941480;29;20074;-84
2022/01/21 10:44:17;;;;;;;32.03;12.70;;;0.70;99.90;;;;;;4941416;29;20031;-84
2022/01/21 10:46:59;;;;;;;45.45;14.88;;;0.60;99.90;;;;;;4925672;29;20375;-84
2022/01/21 10:49:25;;;;;;;40.70;13.35;;;0.50;99.90;;;;;;4941241;29;20422;-85
2022/01/21 10:51:52;;;;;;;35.10;12.88;;;0.40;99.90;;;;;;4957317;29;20035;-83
2022/01/21 10:54:26;;;;;;;28.40;12.43;;;0.40;99.90;;;;;;4958763;29;20359;-82
2022/01/21 10:57:15;;;;;;;31.75;12.50;;;0.50;99.90;;;;;;4941660;29;20031;-82
2022/01/21 10:59:56;;;;;;;42.38;10.50;;;0.60;99.90;;;;;;4941790;29;20042;-82
2022/01/21 11:02:35;;;;;;;29.10;11.20;;;1.00;99.90;;;;;;4941382;29;20501;-83
2022/01/21 11:05:16;;;;;;;32.45;11.05;;;0.90;99.90;;;;;;4925336;29;20479;-82
2022/01/21 11:07:56;;;;;;;30.83;13.30;;;0.90;99.90;;;;;;4927397;29;20039;-83
2022/01/21 11:10:31;;;;;;;30.27;11.73;;;1.00;99.90;;;;;;4941354;29;20031;-83
2022/01/21 11:13:01;;;;;;;29.20;11.20;;;1.00;99.90;;;;;;4957229;29;20031;-82
2022/01/21 11:15:41;;;;;;;36.17;15.52;;;1.00;99.90;;;;;;4940933;29;20042;-82
2022/01/21 11:18:16;;;;;;;29.63;10.77;;;1.20;99.90;;;;;;4957193;29;20031;-83
2022/01/21 11:20:45;;;;;;;31.30;12.25;;;1.10;99.90;;;;;;4925117;29;20035;-83
2022/01/21 11:23:11;;;;;;;40.58;10.73;;;1.10;99.90;;;;;;4940990;29;20039;-83
2022/01/21 11:25:56;;;;;;;37.03;12.50;;;1.10;99.90;;;;;;4925753;29;20560;-82
2022/01/21 11:28:28;;;;;;;40.25;11.10;;;1.10;99.90;;;;;;4924911;29;20034;-82
2022/01/21 11:30:54;;;;;;;29.10;11.02;;;1.00;99.90;;;;;;4940848;29;20039;-82
2022/01/21 11:33:22;;;;;;;42.13;11.95;;;0.80;99.90;;;;;;4925126;29;20035;-83
2022/01/21 11:35:49;;;;;;;132.75;46.33;;;0.80;99.90;;;;;;4957940;29;20043;-83
2022/01/21 11:38:17;;;;;;;296.33;90.93;;;0.70;99.90;;;;;;4940818;29;20031;-83
2022/01/21 11:40:43;;;;;;;34.25;14.15;;;0.90;99.90;;;;;;4925024;29;20032;-83
2022/01/21 11:43:11;;;;;;;20.63;8.52;;;0.90;99.90;;;;;;4958260;29;20038;-82
2022/01/21 11:50:45;;;;;;;32.60;12.18;;;0.60;99.90;;;;;;4940330;29;20134;-82
2022/01/21 11:53:11;;;;;;;;;;;0.40;99.90;;;;;;4957755;28;20805;-82
2022/01/21 11:55:47;;;;;;;29.77;8.82;;;0.40;99.90;;;;;;4956606;29;19918;-83
2022/01/21 11:58:31;;;;;;;32.42;9.52;;;0.30;99.90;;;;;;4924484;29;20031;-83
2022/01/21 12:00:56;;;;;;;28.02;10.35;;;0.20;99.90;;;;;;4924778;29;20595;-82
2022/01/21 12:03:54;;;;;;;33.13;12.30;;;0.20;99.90;;;;;;4940193;29;20062;-83
2022/01/21 12:06:34;;;;;;;34.50;11.77;;;0.30;99.90;;;;;;4940128;29;20126;-82
2022/01/21 12:09:03;;;;;;;51.38;15.57;;;0.20;99.90;;;;;;4940086;29;20023;-82
2022/01/21 12:11:38;;;;;;;39.33;9.93;;;0.20;99.90;;;;;;4940248;29;20062;-82
2022/01/21 12:14:37;;;;;;;39.50;11.88;;;0.20;99.90;;;;;;4924409;29;20037;-84
2022/01/21 12:17:16;;;;;;;30.52;11.23;;;0.20;99.90;;;;;;4940201;29;20106;-81
2022/01/21 12:19:42;;;;;;;32.30;11.45;;;0.20;99.90;;;;;;4924239;29;20035;-83
2022/01/21 12:22:14;;;;;;;28.30;10.35;;;0.20;99.90;;;;;;4957085;29;20063;-83
2022/01/21 12:24:44;;;;;;;37.72;10.57;;;0.20;99.90;;;;;;4923993;29;20070;-83
2022/01/21 12:27:13;;;;;;;34.00;9.68;;;0.30;99.90;;;;;;4957363;29;20058;-83
2022/01/21 12:29:39;;;;;;;32.72;10.18;;;0.30;99.90;;;;;;4923971;29;20367;-83
2022/01/21 12:32:17;;;;;;;28.98;9.13;;;0.30;99.90;;;;;;4939578;29;20367;-82
2022/01/21 12:35:07;;;;;;;32.47;10.52;;;0.30;99.90;;;;;;4943202;29;20045;-83
2022/01/21 12:37:52;;;;;;;37.40;11.10;;;0.30;99.90;;;;;;4939859;29;20546;-83
2022/01/21 12:40:37;;;;;;;29.15;11.85;;;0.40;99.90;;;;;;4956923;29;20055;-84
2022/01/21 12:43:41;;;;;;;28.40;11.77;;;0.40;99.90;;;;;;4924744;29;20039;-83
2022/01/21 12:46:14;;;;;;;40.53;11.43;;;0.30;99.90;;;;;;4940060;29;20042;-82
2022/01/21 12:48:42;;;;;;;32.00;10.68;;;0.40;99.90;;;;;;4929698;29;20473;-82
2022/01/21 12:56:51;;;;;;;23.98;9.50;;;0.70;99.90;;;;;;4944290;29;20049;-84
2022/01/21 12:59:22;;;;;;;28.50;10.30;;;0.80;99.90;;;;;;4942374;29;20086;-83
2022/01/21 13:01:51;;;;;;;;;;;0.60;99.90;;;;;;4942364;29;20420;-83
2022/01/21 13:04:36;;;;;;;37.13;11.05;;;0.60;99.90;;;;;;4942759;29;19914;-84
2022/01/21 13:07:12;;;;;;;31.60;10.68;;;0.50;99.90;;;;;;4929091;29;20035;-83
2022/01/21 13:10:05;;;;;;;31.75;9.98;;;0.50;99.90;;;;;;4944216;29;20058;-83
2022/01/21 13:15:37;;;;;;;27.00;11.38;;;0.60;99.90;;;;;;4955755;29;20051;-83
2022/01/21 13:18:04;;;;;;;30.33;11.82;;;0.50;99.90;;;;;;4939675;29;20038;-83
2022/01/21 13:20:34;;;;;;;28.98;10.50;;;0.60;99.90;;;;;;4939560;29;20118;-84
2022/01/21 13:23:00;;;;;;;25.25;11.27;;;0.60;99.90;;;;;;4960642;29;20035;-83
2022/01/21 13:25:28;;;;;;;39.03;11.27;;;0.60;99.90;;;;;;4928622;29;20071;-83
2022/01/21 13:27:57;;;;;;;41.67;11.88;;;0.50;99.90;;;;;;4940054;29;20031;-84
2022/01/21 13:30:27;;;;;;;29.65;10.75;;;0.50;99.90;;;;;;4924050;29;20035;-84
2022/01/21 13:33:02;;;;;;;41.33;11.13;;;0.60;99.90;;;;;;4923884;29;20027;-84
2022/01/21 13:35:29;;;;;;;30.83;10.52;;;0.50;99.90;;;;;;4939265;29;20385;-83
2022/01/21 13:38:15;;;;;;;37.92;10.38;;;0.50;99.90;;;;;;4956796;29;20417;-84
2022/01/21 13:40:47;;;;;;;27.38;10.68;;;0.50;99.90;;;;;;4939923;29;20031;-84
2022/01/21 13:43:14;;;;;;;25.85;10.38;;;0.40;99.90;;;;;;4942854;29;20042;-84
2022/01/21 13:45:41;;;;;;;32.95;10.10;;;0.60;99.90;;;;;;4939145;29;20039;-83
2022/01/21 13:48:10;;;;;;;32.70;9.80;;;0.70;99.90;;;;;;4943926;29;20024;-83
2022/01/21 13:50:42;;;;;;;35.55;10.30;;;0.80;99.90;;;;;;4924694;29;20023;-84